M V Stampede — V70B4 — position and weather

sailwx.info

Track history (hours):
 
Tides and Currents Weather Stations Pressure Air Temp Water Temp Dewpoint Dewpoint Depression Visibility Wind Speed Wind Dir Waves Ship Positions

M V Stampede

Last reported at 2015-Aug-28 14:06 UTC. Time now 2015-Aug-28 14:53 UTC.
Position N 41°27' W 070°22'.

Length 35 m; draft 3.2 m.

Type: Pleasure craft. MMSI: 538070463.

Date/timePositionNaut miles runAvg speedWind from/ knotsBaromVisibWave heightAir tempDewpointWater temp
2015-Aug-28 14:06N 41°27' W 070°22'6 8.2
2015-Aug-28 13:24N 41°24' W 070°29'1 1.1
2015-Aug-28 12:18N 41°23' W 070°30'0 0.0
2015-Aug-28 11:33N 41°23' W 070°30'0 0.0
2015-Aug-28 10:27N 41°23' W 070°30'0 0.0
2015-Aug-28 09:33N 41°23' W 070°30'0 0.0
2015-Aug-27 10:06N 41°23' W 070°30'0 0.0
2015-Aug-27 09:30N 41°23' W 070°30'0 0.0
2015-Aug-27 06:30N 41°23' W 070°30'0 0.0
2015-Aug-27 04:30N 41°23' W 070°30'0 0.0
2015-Aug-26 23:15N 41°23' W 070°30'0 0.0
2015-Aug-26 22:33N 41°23' W 070°30'0 0.0
2015-Aug-26 20:33N 41°23' W 070°30'0 0.0
2015-Aug-26 19:33N 41°23' W 070°30'0 0.0
2015-Aug-26 18:33N 41°23' W 070°30'0 0.0
2015-Aug-26 17:33N 41°23' W 070°30'0 0.0
2015-Aug-26 16:33N 41°23' W 070°30'1 0.8
2015-Aug-26 15:34N 41°24' W 070°29'7 7.0
2015-Aug-26 14:33N 41°29' W 070°35'8 8.1
2015-Aug-26 13:33N 41°25' W 070°44'3 3.1
2015-Aug-26 12:29N 41°22' W 070°46'0 0.0
2015-Aug-26 11:32N 41°22' W 070°46'0 0.0
2015-Aug-26 10:11N 41°22' W 070°46'0 0.0
2015-Aug-26 09:23N 41°22' W 070°46'0 0.0
2015-Aug-26 08:29N 41°22' W 070°46'0 0.0
2015-Aug-26 03:23N 41°22' W 070°46'0 0.0
2015-Aug-26 02:32N 41°22' W 070°46'0 0.0
2015-Aug-26 01:29N 41°22' W 070°46'0 0.0
2015-Aug-26 00:29N 41°22' W 070°46'0 0.0
2015-Aug-25 23:32N 41°22' W 070°46'0 0.0
2015-Aug-25 22:32N 41°22' W 070°46'0 0.0
2015-Aug-25 21:23N 41°22' W 070°46'0 0.0
2015-Aug-25 20:29N 41°22' W 070°46'0 0.0
2015-Aug-25 19:32N 41°22' W 070°46'0 0.0
2015-Aug-25 18:32N 41°22' W 070°46'0 0.0
2015-Aug-25 17:32N 41°22' W 070°46'0 0.0
2015-Aug-25 16:32N 41°22' W 070°46'0 0.0
2015-Aug-25 15:29N 41°22' W 070°46'0 0.0
2015-Aug-25 14:32N 41°22' W 070°46'0 0.0
2015-Aug-25 13:32N 41°22' W 070°46'0 0.0
2015-Aug-25 12:32N 41°22' W 070°46'0 0.0
2015-Aug-25 11:32N 41°22' W 070°46'0 0.0
2015-Aug-25 10:32N 41°22' W 070°46'0 0.0
2015-Aug-25 09:23N 41°22' W 070°46'0 0.0
2015-Aug-25 08:32N 41°22' W 070°46'0 0.0
2015-Aug-25 07:29N 41°22' W 070°46'0 0.0
2015-Aug-25 06:26N 41°22' W 070°46'0 0.0
2015-Aug-25 05:23N 41°22' W 070°46'0 0.0
2015-Aug-25 04:29N 41°22' W 070°46'0 0.0
2015-Aug-25 03:32N 41°22' W 070°46'0 0.0
2015-Aug-25 02:26N 41°22' W 070°46'0 0.0
2015-Aug-25 01:32N 41°22' W 070°46'0 0.0
2015-Aug-25 00:32N 41°22' W 070°46'0 0.0
2015-Aug-24 23:32N 41°22' W 070°46'0 0.0
2015-Aug-24 22:32N 41°22' W 070°46'0 0.0
2015-Aug-24 21:23N 41°22' W 070°46'0 0.0
2015-Aug-24 20:24N 41°22' W 070°46'0 0.0
2015-Aug-24 19:30N 41°22' W 070°46'5 4.8
2015-Aug-24 18:33N 41°22' W 070°52'1010.1
2015-Aug-24 17:34N 41°24' W 071°05'1010.0
2015-Aug-24 16:33N 41°25' W 071°19'4 0.9
2015-Aug-24 12:31N 41°29' W 071°19'0 0.0
2015-Aug-24 11:19N 41°29' W 071°19'0 0.0
2015-Aug-24 10:25N 41°29' W 071°19'0 0.0
2015-Aug-24 09:31N 41°29' W 071°19'0 0.0
2015-Aug-24 08:16N 41°29' W 071°19'0 0.0
2015-Aug-24 06:19N 41°29' W 071°19'0 0.0
2015-Aug-24 05:31N 41°29' W 071°19'0 0.0
2015-Aug-24 04:19N 41°29' W 071°19'0 0.0
2015-Aug-24 03:25N 41°29' W 071°19'0 0.0
2015-Aug-24 02:31N 41°29' W 071°19'0 0.0
2015-Aug-24 01:25N 41°29' W 071°19'0 0.0
2015-Aug-24 00:28N 41°29' W 071°19'0 0.0
2015-Aug-23 23:31N 41°29' W 071°19'0 0.0
2015-Aug-23 22:28N 41°29' W 071°19'0 0.0
2015-Aug-23 21:25N 41°29' W 071°19'0 0.0
2015-Aug-23 20:25N 41°29' W 071°19'0 0.0
2015-Aug-23 19:19N 41°29' W 071°19'0 0.0
2015-Aug-23 18:31N 41°29' W 071°19'0 0.0
2015-Aug-23 16:25N 41°29' W 071°19'0 0.0
2015-Aug-23 14:25N 41°29' W 071°19'0 0.0
2015-Aug-23 12:25N 41°29' W 071°19'0 0.0
2015-Aug-23 07:31N 41°29' W 071°19'0 0.0
2015-Aug-23 06:31N 41°29' W 071°19'0 0.0
2015-Aug-23 05:19N 41°29' W 071°19'0 0.0
2015-Aug-23 03:25N 41°29' W 071°19'0 0.0
2015-Aug-23 02:22N 41°29' W 071°19'0 0.0
2015-Aug-23 01:22N 41°29' W 071°19'0 0.0
2015-Aug-23 00:31N 41°29' W 071°19'0 0.0
2015-Aug-22 21:25N 41°29' W 071°19'0 0.0
2015-Aug-22 20:33N 41°29' W 071°19'3 3.1
2015-Aug-22 19:33N 41°27' W 071°23'9 9.5
2015-Aug-22 18:33N 41°20' W 071°31'10 9.5
2015-Aug-22 17:33N 41°19' W 071°44'9 9.0
2015-Aug-22 16:33N 41°18' W 071°56'4 3.6
2015-Aug-22 15:32N 41°16' W 072°00'0 0.0
2015-Aug-22 14:32N 41°16' W 072°00'0 0.0
2015-Aug-22 13:32N 41°16' W 072°00'0 0.0
2015-Aug-22 12:32N 41°16' W 072°00'0 0.0
2015-Aug-22 11:32N 41°16' W 072°00'0 0.0
2015-Aug-22 10:32N 41°16' W 072°00'0 0.0
2015-Aug-22 09:32N 41°16' W 072°00'0 0.0
2015-Aug-22 08:32N 41°16' W 072°00'0 0.0
2015-Aug-22 07:32N 41°16' W 072°00'0 0.0
2015-Aug-22 06:32N 41°16' W 072°00'0 0.0
2015-Aug-22 05:32N 41°16' W 072°00'0 0.0
2015-Aug-22 04:32N 41°16' W 072°00'0 0.0
2015-Aug-22 03:32N 41°16' W 072°00'0 0.0
2015-Aug-22 02:32N 41°16' W 072°00'0 0.0
2015-Aug-22 01:32N 41°16' W 072°00'0 0.0
2015-Aug-22 00:32N 41°16' W 072°00'0 0.0
2015-Aug-21 23:32N 41°16' W 072°00'0 0.0
2015-Aug-21 22:32N 41°16' W 072°00'0 0.0
2015-Aug-21 21:32N 41°16' W 072°00'0 0.0
2015-Aug-21 20:32N 41°16' W 072°00'0 0.0
2015-Aug-21 19:32N 41°16' W 072°00'0 0.0
2015-Aug-21 18:32N 41°16' W 072°00'0 0.0
2015-Aug-21 17:32N 41°16' W 072°00'0 0.0
2015-Aug-21 16:32N 41°16' W 072°00'0 0.0
2015-Aug-21 15:32N 41°16' W 072°00'0 0.0
2015-Aug-21 14:32N 41°16' W 072°00'0 0.0
2015-Aug-21 13:23N 41°16' W 072°00'0 0.0
2015-Aug-21 12:32N 41°16' W 072°00'0 0.0
2015-Aug-21 11:32N 41°16' W 072°00'0 0.0
2015-Aug-21 10:32N 41°16' W 072°00'0 0.0
2015-Aug-21 09:32N 41°16' W 072°00'0 0.0
2015-Aug-21 08:32N 41°16' W 072°00'0 0.0
2015-Aug-21 07:32N 41°16' W 072°00'0 0.0
2015-Aug-21 06:32N 41°16' W 072°00'0 0.0
2015-Aug-21 05:32N 41°16' W 072°00'0 0.0
2015-Aug-21 04:32N 41°16' W 072°00'0 0.0
2015-Aug-21 03:32N 41°16' W 072°00'0 0.0
2015-Aug-21 02:32N 41°16' W 072°00'0 0.0
2015-Aug-21 01:32N 41°16' W 072°00'0 0.0
2015-Aug-21 00:32N 41°16' W 072°00'0 0.0
2015-Aug-20 23:32N 41°16' W 072°00'0 0.0
2015-Aug-20 22:32N 41°16' W 072°00'0 0.0
2015-Aug-20 21:32N 41°16' W 072°00'0 0.0
2015-Aug-20 20:32N 41°16' W 072°00'0 0.0
2015-Aug-20 19:32N 41°16' W 072°00'0 0.0
2015-Aug-20 18:32N 41°16' W 072°00'0 0.0
2015-Aug-20 17:32N 41°16' W 072°00'0 0.0
2015-Aug-20 16:32N 41°16' W 072°00'2 1.6
2015-Aug-20 15:33N 41°17' W 072°02'9 8.8
2015-Aug-20 14:33N 41°09' W 072°09'8 8.2
2015-Aug-20 13:33N 41°03' W 072°15'2 0.6
2015-Aug-20 09:14N 41°01' W 072°17'0 0.0
2015-Aug-20 06:26N 41°01' W 072°17'0 0.0
2015-Aug-19 05:26N 41°01' W 072°17'0 0.0
2015-Aug-19 04:32N 41°01' W 072°17'0 0.0
2015-Aug-19 03:28N 41°01' W 072°17'0 0.0
2015-Aug-19 02:30N 41°01' W 072°17'0 0.0
2015-Aug-19 01:30N 41°01' W 072°17'0 0.0
2015-Aug-19 00:27N 41°01' W 072°17'0 0.0
2015-Aug-18 23:18N 41°01' W 072°17'0 0.0
2015-Aug-18 22:32N 41°01' W 072°17'0 0.0
2015-Aug-18 21:29N 41°01' W 072°17'0 0.0
2015-Aug-18 20:33N 41°01' W 072°17'0 0.0
2015-Aug-18 19:32N 41°01' W 072°17'0 0.0
2015-Aug-18 18:20N 41°01' W 072°17'0 0.0
2015-Aug-18 17:32N 41°01' W 072°17'0 0.0
2015-Aug-18 16:32N 41°01' W 072°17'0 0.0
2015-Aug-18 15:32N 41°01' W 072°17'  
Track history (hours):
 
Tides and Currents Weather Stations Pressure Air Temp Water Temp Dewpoint Dewpoint Depression Visibility Wind Speed Wind Dir Waves Ship Positions

M V Stampede

Last reported at 2015-Aug-28 14:06 UTC. Time now 2015-Aug-28 14:53 UTC.
Position N 41°27' W 070°22'.

Length 35 m; draft 3.2 m.

Type: Pleasure craft. MMSI: 538070463.

Date/timePositionNaut miles runAvg speedWind from/ knotsBaromVisibWave heightAir tempDewpointWater temp
2015-Aug-28 14:06N 41°27' W 070°22'6 8.2
2015-Aug-28 13:24N 41°24' W 070°29'1 1.1
2015-Aug-28 12:18N 41°23' W 070°30'0 0.0
2015-Aug-28 11:33N 41°23' W 070°30'0 0.0
2015-Aug-28 10:27N 41°23' W 070°30'0 0.0
2015-Aug-28 09:33N 41°23' W 070°30'0 0.0
2015-Aug-27 10:06N 41°23' W 070°30'0 0.0
2015-Aug-27 09:30N 41°23' W 070°30'0 0.0
2015-Aug-27 06:30N 41°23' W 070°30'0 0.0
2015-Aug-27 04:30N 41°23' W 070°30'0 0.0
2015-Aug-26 23:15N 41°23' W 070°30'0 0.0
2015-Aug-26 22:33N 41°23' W 070°30'0 0.0
2015-Aug-26 20:33N 41°23' W 070°30'0 0.0
2015-Aug-26 19:33N 41°23' W 070°30'0 0.0
2015-Aug-26 18:33N 41°23' W 070°30'0 0.0
2015-Aug-26 17:33N 41°23' W 070°30'0 0.0
2015-Aug-26 16:33N 41°23' W 070°30'1 0.8
2015-Aug-26 15:34N 41°24' W 070°29'7 7.0
2015-Aug-26 14:33N 41°29' W 070°35'8 8.1
2015-Aug-26 13:33N 41°25' W 070°44'3 3.1
2015-Aug-26 12:29N 41°22' W 070°46'0 0.0
2015-Aug-26 11:32N 41°22' W 070°46'0 0.0
2015-Aug-26 10:11N 41°22' W 070°46'0 0.0
2015-Aug-26 09:23N 41°22' W 070°46'0 0.0
2015-Aug-26 08:29N 41°22' W 070°46'0 0.0
2015-Aug-26 03:23N 41°22' W 070°46'0 0.0
2015-Aug-26 02:32N 41°22' W 070°46'0 0.0
2015-Aug-26 01:29N 41°22' W 070°46'0 0.0
2015-Aug-26 00:29N 41°22' W 070°46'0 0.0
2015-Aug-25 23:32N 41°22' W 070°46'0 0.0
2015-Aug-25 22:32N 41°22' W 070°46'0 0.0
2015-Aug-25 21:23N 41°22' W 070°46'0 0.0
2015-Aug-25 20:29N 41°22' W 070°46'0 0.0
2015-Aug-25 19:32N 41°22' W 070°46'0 0.0
2015-Aug-25 18:32N 41°22' W 070°46'0 0.0
2015-Aug-25 17:32N 41°22' W 070°46'0 0.0
2015-Aug-25 16:32N 41°22' W 070°46'0 0.0
2015-Aug-25 15:29N 41°22' W 070°46'0 0.0
2015-Aug-25 14:32N 41°22' W 070°46'0 0.0
2015-Aug-25 13:32N 41°22' W 070°46'0 0.0
2015-Aug-25 12:32N 41°22' W 070°46'0 0.0
2015-Aug-25 11:32N 41°22' W 070°46'0 0.0
2015-Aug-25 10:32N 41°22' W 070°46'0 0.0
2015-Aug-25 09:23N 41°22' W 070°46'0 0.0
2015-Aug-25 08:32N 41°22' W 070°46'0 0.0
2015-Aug-25 07:29N 41°22' W 070°46'0 0.0
2015-Aug-25 06:26N 41°22' W 070°46'0 0.0
2015-Aug-25 05:23N 41°22' W 070°46'0 0.0
2015-Aug-25 04:29N 41°22' W 070°46'0 0.0
2015-Aug-25 03:32N 41°22' W 070°46'0 0.0
2015-Aug-25 02:26N 41°22' W 070°46'0 0.0
2015-Aug-25 01:32N 41°22' W 070°46'0 0.0
2015-Aug-25 00:32N 41°22' W 070°46'0 0.0
2015-Aug-24 23:32N 41°22' W 070°46'0 0.0
2015-Aug-24 22:32N 41°22' W 070°46'0 0.0
2015-Aug-24 21:23N 41°22' W 070°46'0 0.0
2015-Aug-24 20:24N 41°22' W 070°46'0 0.0
2015-Aug-24 19:30N 41°22' W 070°46'5 4.8
2015-Aug-24 18:33N 41°22' W 070°52'1010.1
2015-Aug-24 17:34N 41°24' W 071°05'1010.0
2015-Aug-24 16:33N 41°25' W 071°19'4 0.9
2015-Aug-24 12:31N 41°29' W 071°19'0 0.0
2015-Aug-24 11:19N 41°29' W 071°19'0 0.0
2015-Aug-24 10:25N 41°29' W 071°19'0 0.0
2015-Aug-24 09:31N 41°29' W 071°19'0 0.0
2015-Aug-24 08:16N 41°29' W 071°19'0 0.0
2015-Aug-24 06:19N 41°29' W 071°19'0 0.0
2015-Aug-24 05:31N 41°29' W 071°19'0 0.0
2015-Aug-24 04:19N 41°29' W 071°19'0 0.0
2015-Aug-24 03:25N 41°29' W 071°19'0 0.0
2015-Aug-24 02:31N 41°29' W 071°19'0 0.0
2015-Aug-24 01:25N 41°29' W 071°19'0 0.0
2015-Aug-24 00:28N 41°29' W 071°19'0 0.0
2015-Aug-23 23:31N 41°29' W 071°19'0 0.0
2015-Aug-23 22:28N 41°29' W 071°19'0 0.0
2015-Aug-23 21:25N 41°29' W 071°19'0 0.0
2015-Aug-23 20:25N 41°29' W 071°19'0 0.0
2015-Aug-23 19:19N 41°29' W 071°19'0 0.0
2015-Aug-23 18:31N 41°29' W 071°19'0 0.0
2015-Aug-23 16:25N 41°29' W 071°19'0 0.0
2015-Aug-23 14:25N 41°29' W 071°19'0 0.0
2015-Aug-23 12:25N 41°29' W 071°19'0 0.0
2015-Aug-23 07:31N 41°29' W 071°19'0 0.0
2015-Aug-23 06:31N 41°29' W 071°19'0 0.0
2015-Aug-23 05:19N 41°29' W 071°19'0 0.0
2015-Aug-23 03:25N 41°29' W 071°19'0 0.0
2015-Aug-23 02:22N 41°29' W 071°19'0 0.0
2015-Aug-23 01:22N 41°29' W 071°19'0 0.0
2015-Aug-23 00:31N 41°29' W 071°19'0 0.0
2015-Aug-22 21:25N 41°29' W 071°19'0 0.0
2015-Aug-22 20:33N 41°29' W 071°19'3 3.1
2015-Aug-22 19:33N 41°27' W 071°23'9 9.5
2015-Aug-22 18:33N 41°20' W 071°31'10 9.5
2015-Aug-22 17:33N 41°19' W 071°44'9 9.0
2015-Aug-22 16:33N 41°18' W 071°56'4 3.6
2015-Aug-22 15:32N 41°16' W 072°00'0 0.0
2015-Aug-22 14:32N 41°16' W 072°00'0 0.0
2015-Aug-22 13:32N 41°16' W 072°00'0 0.0
2015-Aug-22 12:32N 41°16' W 072°00'0 0.0
2015-Aug-22 11:32N 41°16' W 072°00'0 0.0
2015-Aug-22 10:32N 41°16' W 072°00'0 0.0
2015-Aug-22 09:32N 41°16' W 072°00'0 0.0
2015-Aug-22 08:32N 41°16' W 072°00'0 0.0
2015-Aug-22 07:32N 41°16' W 072°00'0 0.0
2015-Aug-22 06:32N 41°16' W 072°00'0 0.0
2015-Aug-22 05:32N 41°16' W 072°00'0 0.0
2015-Aug-22 04:32N 41°16' W 072°00'0 0.0
2015-Aug-22 03:32N 41°16' W 072°00'0 0.0
2015-Aug-22 02:32N 41°16' W 072°00'0 0.0
2015-Aug-22 01:32N 41°16' W 072°00'0 0.0
2015-Aug-22 00:32N 41°16' W 072°00'0 0.0
2015-Aug-21 23:32N 41°16' W 072°00'0 0.0
2015-Aug-21 22:32N 41°16' W 072°00'0 0.0
2015-Aug-21 21:32N 41°16' W 072°00'0 0.0
2015-Aug-21 20:32N 41°16' W 072°00'0 0.0
2015-Aug-21 19:32N 41°16' W 072°00'0 0.0
2015-Aug-21 18:32N 41°16' W 072°00'0 0.0
2015-Aug-21 17:32N 41°16' W 072°00'0 0.0
2015-Aug-21 16:32N 41°16' W 072°00'0 0.0
2015-Aug-21 15:32N 41°16' W 072°00'0 0.0
2015-Aug-21 14:32N 41°16' W 072°00'0 0.0
2015-Aug-21 13:23N 41°16' W 072°00'0 0.0
2015-Aug-21 12:32N 41°16' W 072°00'0 0.0
2015-Aug-21 11:32N 41°16' W 072°00'0 0.0
2015-Aug-21 10:32N 41°16' W 072°00'0 0.0
2015-Aug-21 09:32N 41°16' W 072°00'0 0.0
2015-Aug-21 08:32N 41°16' W 072°00'0 0.0
2015-Aug-21 07:32N 41°16' W 072°00'0 0.0
2015-Aug-21 06:32N 41°16' W 072°00'0 0.0
2015-Aug-21 05:32N 41°16' W 072°00'0 0.0
2015-Aug-21 04:32N 41°16' W 072°00'0 0.0
2015-Aug-21 03:32N 41°16' W 072°00'0 0.0
2015-Aug-21 02:32N 41°16' W 072°00'0 0.0
2015-Aug-21 01:32N 41°16' W 072°00'0 0.0
2015-Aug-21 00:32N 41°16' W 072°00'0 0.0
2015-Aug-20 23:32N 41°16' W 072°00'0 0.0
2015-Aug-20 22:32N 41°16' W 072°00'0 0.0
2015-Aug-20 21:32N 41°16' W 072°00'0 0.0
2015-Aug-20 20:32N 41°16' W 072°00'0 0.0
2015-Aug-20 19:32N 41°16' W 072°00'0 0.0
2015-Aug-20 18:32N 41°16' W 072°00'0 0.0
2015-Aug-20 17:32N 41°16' W 072°00'0 0.0
2015-Aug-20 16:32N 41°16' W 072°00'2 1.6
2015-Aug-20 15:33N 41°17' W 072°02'9 8.8
2015-Aug-20 14:33N 41°09' W 072°09'8 8.2
2015-Aug-20 13:33N 41°03' W 072°15'2 0.6
2015-Aug-20 09:14N 41°01' W 072°17'0 0.0
2015-Aug-20 06:26N 41°01' W 072°17'0 0.0
2015-Aug-19 05:26N 41°01' W 072°17'0 0.0
2015-Aug-19 04:32N 41°01' W 072°17'0 0.0
2015-Aug-19 03:28N 41°01' W 072°17'0 0.0
2015-Aug-19 02:30N 41°01' W 072°17'0 0.0
2015-Aug-19 01:30N 41°01' W 072°17'0 0.0
2015-Aug-19 00:27N 41°01' W 072°17'0 0.0
2015-Aug-18 23:18N 41°01' W 072°17'0 0.0
2015-Aug-18 22:32N 41°01' W 072°17'0 0.0
2015-Aug-18 21:29N 41°01' W 072°17'0 0.0
2015-Aug-18 20:33N 41°01' W 072°17'0 0.0
2015-Aug-18 19:32N 41°01' W 072°17'0 0.0
2015-Aug-18 18:20N 41°01' W 072°17'0 0.0
2015-Aug-18 17:32N 41°01' W 072°17'0 0.0
2015-Aug-18 16:32N 41°01' W 072°17'0 0.0
2015-Aug-18 15:32N 41°01' W 072°17'  

Dump ship's entire track history